sensor_id;sensor_type;location;lat;lon;timestamp;pressure;altitude;pressure_sealevel;temperature;humidity
9281;BME280;4679;47.966;7.958;2022-12-18T00:00:07;98049.56;;;-8.45;91.00
9281;BME280;4679;47.966;7.958;2022-12-18T00:02:09;98054.53;;;-8.42;90.91
9281;BME280;4679;47.966;7.958;2022-12-18T00:04:19;98048.94;;;-8.36;89.75
9281;BME280;4679;47.966;7.958;2022-12-18T08:01:45;98226.16;;;-9.12;87.90
9281;BME280;4679;47.966;7.958;2022-12-18T08:03:47;98232.41;;;-9.02;86.87
9281;BME280;4679;47.966;7.958;2022-12-18T08:05:49;98235.06;;;-9.03;87.95
9281;BME280;4679;47.966;7.958;2022-12-18T08:07:50;98239.47;;;-9.05;86.60
9281;BME280;4679;47.966;7.958;2022-12-18T08:09:52;98247.44;;;-9.10;86.89
9281;BME280;4679;47.966;7.958;2022-12-18T08:11:54;98244.41;;;-9.02;87.38
9281;BME280;4679;47.966;7.958;2022-12-18T08:13:56;98247.16;;;-8.91;87.61
9281;BME280;4679;47.966;7.958;2022-12-18T08:15:59;98237.69;;;-8.91;87.84
9281;BME280;4679;47.966;7.958;2022-12-18T08:18:03;98237.78;;;-8.92;86.77
9281;BME280;4679;47.966;7.958;2022-12-18T08:20:05;98236.03;;;-8.92;87.58
9281;BME280;4679;47.966;7.958;2022-12-18T08:22:07;98234.72;;;-8.84;86.19
9281;BME280;4679;47.966;7.958;2022-12-18T08:24:09;98237.84;;;-8.79;86.58
9281;BME280;4679;47.966;7.958;2022-12-18T08:26:11;98221.22;;;-8.74;87.05
9281;BME280;4679;47.966;7.958;2022-12-18T08:28:17;98229.81;;;-8.61;86.21
9281;BME280;4679;47.966;7.958;2022-12-18T08:30:19;98221.41;;;-8.50;86.24
9281;BME280;4679;47.966;7.958;2022-12-18T08:32:21;98221.53;;;-8.39;86.46
9281;BME280;4679;47.966;7.958;2022-12-18T08:34:24;98210.72;;;-8.31;87.06
9281;BME280;4679;47.966;7.958;2022-12-18T08:36:26;98214.34;;;-8.21;85.98
9281;BME280;4679;47.966;7.958;2022-12-18T08:38:27;98212.31;;;-8.16;86.29
9281;BME280;4679;47.966;7.958;2022-12-18T08:40:29;98202.75;;;-8.14;86.50
9281;BME280;4679;47.966;7.958;2022-12-18T08:42:34;98195.66;;;-8.10;85.83
9281;BME280;4679;47.966;7.958;2022-12-18T08:44:53;98176.19;;;-8.02;85.93
9281;BME280;4679;47.966;7.958;2022-12-18T08:46:55;98177.44;;;-7.95;86.08
9281;BME280;4679;47.966;7.958;2022-12-18T08:48:56;98172.69;;;-7.88;86.82
9281;BME280;4679;47.966;7.958;2022-12-18T08:51:00;98164.34;;;-7.79;86.66
9281;BME280;4679;47.966;7.958;2022-12-18T08:53:01;98161.03;;;-7.68;85.63
9281;BME280;4679;47.966;7.958;2022-12-18T08:55:04;98151.66;;;-7.57;85.39
9281;BME280;4679;47.966;7.958;2022-12-18T08:57:06;98154.31;;;-7.46;85.86
9281;BME280;4679;47.966;7.958;2022-12-18T08:59:08;98150.19;;;-7.35;85.35
9281;BME280;4679;47.966;7.958;2022-12-18T09:01:11;98151.38;;;-7.28;85.61
9281;BME280;4679;47.966;7.958;2022-12-18T09:03:14;98157.66;;;-7.20;85.68
9281;BME280;4679;47.966;7.958;2022-12-18T09:05:17;98153.59;;;-7.11;85.61
9281;BME280;4679;47.966;7.958;2022-12-18T09:07:20;98149.53;;;-7.02;85.91
9281;BME280;4679;47.966;7.958;2022-12-18T09:09:21;98153.25;;;-6.94;85.57
9281;BME280;4679;47.966;7.958;2022-12-18T09:11:25;98154.94;;;-6.82;85.49
9281;BME280;4679;47.966;7.958;2022-12-18T09:13:27;98151.00;;;-6.75;84.91
9281;BME280;4679;47.966;7.958;2022-12-18T09:15:29;98157.66;;;-6.59;85.13
9281;BME280;4679;47.966;7.958;2022-12-18T09:17:31;98149.59;;;-6.44;85.28
9281;BME280;4679;47.966;7.958;2022-12-18T09:19:32;98156.22;;;-6.28;84.94
9281;BME280;4679;47.966;7.958;2022-12-18T09:21:37;98152.50;;;-6.13;84.34
9281;BME280;4679;47.966;7.958;2022-12-18T09:23:41;98150.66;;;-6.00;84.41
9281;BME280;4679;47.966;7.958;2022-12-18T09:25:43;98156.75;;;-6.01;84.33
9281;BME280;4679;47.966;7.958;2022-12-18T09:27:46;98154.31;;;-5.91;84.83
9281;BME280;4679;47.966;7.958;2022-12-18T09:29:48;98164.88;;;-5.83;84.40
9281;BME280;4679;47.966;7.958;2022-12-18T09:31:50;98164.38;;;-5.77;84.21
9281;BME280;4679;47.966;7.958;2022-12-18T09:33:51;98169.22;;;-5.73;84.29
9281;BME280;4679;47.966;7.958;2022-12-18T09:35:53;98166.75;;;-5.63;84.50
9281;BME280;4679;47.966;7.958;2022-12-18T09:37:55;98165.13;;;-5.53;84.13
9281;BME280;4679;47.966;7.958;2022-12-18T09:39:58;98164.19;;;-5.41;83.84
9281;BME280;4679;47.966;7.958;2022-12-18T09:41:59;98171.81;;;-5.28;84.10
9281;BME280;4679;47.966;7.958;2022-12-18T09:44:05;98173.44;;;-5.16;84.04
9281;BME280;4679;47.966;7.958;2022-12-18T09:46:17;98176.47;;;-5.00;83.43
9281;BME280;4679;47.966;7.958;2022-12-18T09:48:23;98173.88;;;-4.88;83.87
9281;BME280;4679;47.966;7.958;2022-12-18T09:50:32;98180.69;;;-4.76;83.17
9281;BME280;4679;47.966;7.958;2022-12-18T09:52:37;98187.34;;;-4.63;83.26
9281;BME280;4679;47.966;7.958;2022-12-18T09:54:47;98192.97;;;-4.57;83.13
9281;BME280;4679;47.966;7.958;2022-12-18T09:56:50;98185.41;;;-4.49;82.94
9281;BME280;4679;47.966;7.958;2022-12-18T09:58:55;98193.50;;;-4.43;83.21
9281;BME280;4679;47.966;7.958;2022-12-18T10:00:59;98191.00;;;-4.33;82.36
9281;BME280;4679;47.966;7.958;2022-12-18T10:03:02;98197.03;;;-4.12;83.35
9281;BME280;4679;47.966;7.958;2022-12-18T10:05:11;98188.44;;;-3.92;82.41
9281;BME280;4679;47.966;7.958;2022-12-18T10:07:20;98186.34;;;-3.77;82.96
9281;BME280;4679;47.966;7.958;2022-12-18T10:09:28;98185.34;;;-3.65;82.60
9281;BME280;4679;47.966;7.958;2022-12-18T10:11:42;98176.81;;;-3.56;82.20
9281;BME280;4679;47.966;7.958;2022-12-18T10:13:54;98183.16;;;-3.39;82.00
9281;BME280;4679;47.966;7.958;2022-12-18T10:16:07;98180.22;;;-3.25;82.02
9281;BME280;4679;47.966;7.958;2022-12-18T10:18:22;98178.84;;;-3.19;81.40
9281;BME280;4679;47.966;7.958;2022-12-18T10:20:30;98187.78;;;-3.12;81.48
9281;BME280;4679;47.966;7.958;2022-12-18T10:22:44;98185.63;;;-3.07;82.42
9281;BME280;4679;47.966;7.958;2022-12-18T10:24:56;98178.59;;;-3.16;81.92
9281;BME280;4679;47.966;7.958;2022-12-18T10:27:12;98177.81;;;-3.07;81.79
9281;BME280;4679;47.966;7.958;2022-12-18T10:29:17;98168.56;;;-2.90;81.57
9281;BME280;4679;47.966;7.958;2022-12-18T10:31:22;98164.34;;;-2.72;81.63
9281;BME280;4679;47.966;7.958;2022-12-18T10:33:29;98154.41;;;-2.57;81.38
9281;BME280;4679;47.966;7.958;2022-12-18T10:35:32;98147.84;;;-2.52;81.74
9281;BME280;4679;47.966;7.958;2022-12-18T10:37:33;98148.97;;;-2.44;81.07
9281;BME280;4679;47.966;7.958;2022-12-18T10:39:35;98145.25;;;-2.32;81.51
9281;BME280;4679;47.966;7.958;2022-12-18T10:41:37;98147.59;;;-2.29;80.68
9281;BME280;4679;47.966;7.958;2022-12-18T10:43:39;98145.13;;;-2.31;81.57
9281;BME280;4679;47.966;7.958;2022-12-18T10:45:58;98147.72;;;-2.31;81.71
9281;BME280;4679;47.966;7.958;2022-12-18T10:48:00;98142.78;;;-2.24;81.42
9281;BME280;4679;47.966;7.958;2022-12-18T10:50:03;98134.00;;;-2.14;80.87
9281;BME280;4679;47.966;7.958;2022-12-18T10:52:07;98122.38;;;-2.00;81.08
9281;BME280;4679;47.966;7.958;2022-12-18T10:54:17;98122.63;;;-1.84;80.75
9281;BME280;4679;47.966;7.958;2022-12-18T10:56:20;98123.94;;;-1.70;80.79
9281;BME280;4679;47.966;7.958;2022-12-18T10:58:24;98122.00;;;-1.58;80.57
9281;BME280;4679;47.966;7.958;2022-12-18T11:00:28;98118.38;;;-1.48;80.13
9281;BME280;4679;47.966;7.958;2022-12-18T11:02:36;98119.59;;;-1.42;81.04
9281;BME280;4679;47.966;7.958;2022-12-18T11:04:50;98106.31;;;-1.39;80.55
9281;BME280;4679;47.966;7.958;2022-12-18T11:06:57;98105.56;;;-1.31;80.61
9281;BME280;4679;47.966;7.958;2022-12-18T11:09:00;98101.72;;;-1.27;80.50
9281;BME280;4679;47.966;7.958;2022-12-18T11:11:04;98099.13;;;-1.27;81.08
9281;BME280;4679;47.966;7.958;2022-12-18T11:13:11;98088.50;;;-1.16;80.67
9281;BME280;4679;47.966;7.958;2022-12-18T11:15:16;98103.28;;;-1.07;80.43
9281;BME280;4679;47.966;7.958;2022-12-18T11:17:24;98094.63;;;-1.08;80.47
9281;BME280;4679;47.966;7.958;2022-12-18T11:19:33;98095.13;;;-1.04;80.24
9281;BME280;4679;47.966;7.958;2022-12-18T11:21:39;98097.03;;;-0.96;80.55
9281;BME280;4679;47.966;7.958;2022-12-18T11:23:46;98087.13;;;-0.93;81.13
9281;BME280;4679;47.966;7.958;2022-12-18T11:25:53;98089.13;;;-0.87;80.55
9281;BME280;4679;47.966;7.958;2022-12-18T11:27:56;98092.50;;;-0.77;80.52
9281;BME280;4679;47.966;7.958;2022-12-18T11:30:08;98094.38;;;-0.69;80.63
9281;BME280;4679;47.966;7.958;2022-12-18T11:32:26;98083.34;;;-0.63;80.50
9281;BME280;4679;47.966;7.958;2022-12-18T11:34:31;98095.47;;;-0.54;80.51
9281;BME280;4679;47.966;7.958;2022-12-18T11:36:37;98088.88;;;-0.66;80.45
9281;BME280;4679;47.966;7.958;2022-12-18T11:38:42;98089.72;;;-0.75;80.59
9281;BME280;4679;47.966;7.958;2022-12-18T11:40:48;98096.53;;;-0.64;80.57
9281;BME280;4679;47.966;7.958;2022-12-18T11:42:56;98088.19;;;-0.50;81.07
9281;BME280;4679;47.966;7.958;2022-12-18T11:45:02;98098.00;;;-0.44;80.55
9281;BME280;4679;47.966;7.958;2022-12-18T11:47:13;98095.03;;;-0.49;80.33
9281;BME280;4679;47.966;7.958;2022-12-18T11:49:20;98099.44;;;-0.50;80.52
9281;BME280;4679;47.966;7.958;2022-12-18T11:51:28;98100.25;;;-0.49;80.65
9281;BME280;4679;47.966;7.958;2022-12-18T11:53:33;98096.34;;;-0.45;80.63
9281;BME280;4679;47.966;7.958;2022-12-18T11:55:43;98090.78;;;-0.50;80.60
9281;BME280;4679;47.966;7.958;2022-12-18T11:57:55;98082.00;;;-0.49;80.61
9281;BME280;4679;47.966;7.958;2022-12-18T12:00:04;98084.16;;;-0.45;80.81
9281;BME280;4679;47.966;7.958;2022-12-18T12:02:21;98082.28;;;-0.34;80.59
9281;BME280;4679;47.966;7.958;2022-12-18T12:04:41;98079.16;;;-0.38;80.76
9281;BME280;4679;47.966;7.958;2022-12-18T12:06:54;98070.47;;;-0.47;80.88
9281;BME280;4679;47.966;7.958;2022-12-18T12:09:06;98075.50;;;-0.45;80.95
9281;BME280;4679;47.966;7.958;2022-12-18T12:11:20;98078.88;;;-0.35;81.12
9281;BME280;4679;47.966;7.958;2022-12-18T12:13:35;98073.69;;;-0.27;81.03
9281;BME280;4679;47.966;7.958;2022-12-18T12:15:48;98072.22;;;-0.29;80.94
9281;BME280;4679;47.966;7.958;2022-12-18T12:17:56;98069.78;;;-0.31;81.18
9281;BME280;4679;47.966;7.958;2022-12-18T12:20:08;98061.59;;;-0.36;81.38
9281;BME280;4679;47.966;7.958;2022-12-18T12:22:22;98068.97;;;-0.67;81.09
9281;BME280;4679;47.966;7.958;2022-12-18T12:24:34;98072.84;;;-0.89;81.66
9281;BME280;4679;47.966;7.958;2022-12-18T12:26:47;98075.53;;;-0.98;81.89
9281;BME280;4679;47.966;7.958;2022-12-18T12:29:01;98064.06;;;-0.88;82.18
9281;BME280;4679;47.966;7.958;2022-12-18T12:31:11;98067.13;;;-0.92;81.83
9281;BME280;4679;47.966;7.958;2022-12-18T12:33:26;98068.81;;;-1.01;82.35
9281;BME280;4679;47.966;7.958;2022-12-18T12:35:38;98070.06;;;-1.05;82.26
9281;BME280;4679;47.966;7.958;2022-12-18T12:37:53;98063.88;;;-1.04;82.58
9281;BME280;4679;47.966;7.958;2022-12-18T12:39:58;98067.91;;;-1.10;82.48
9281;BME280;4679;47.966;7.958;2022-12-18T12:42:01;98086.88;;;-1.17;82.07
9281;BME280;4679;47.966;7.958;2022-12-18T12:44:24;98082.25;;;-1.23;82.44
9281;BME280;4679;47.966;7.958;2022-12-18T12:46:27;98080.38;;;-1.31;82.98
9281;BME280;4679;47.966;7.958;2022-12-18T12:48:38;98076.59;;;-1.19;82.60
9281;BME280;4679;47.966;7.958;2022-12-18T12:50:41;98079.63;;;-0.96;82.67
9281;BME280;4679;47.966;7.958;2022-12-18T12:52:47;98076.94;;;-0.86;82.22
9281;BME280;4679;47.966;7.958;2022-12-18T12:54:51;98069.72;;;-0.75;82.46
9281;BME280;4679;47.966;7.958;2022-12-18T12:56:59;98069.19;;;-0.60;82.25
9281;BME280;4679;47.966;7.958;2022-12-18T12:59:11;98068.16;;;-0.50;82.13
9281;BME280;4679;47.966;7.958;2022-12-18T13:01:24;98071.59;;;-0.49;82.28
9281;BME280;4679;47.966;7.958;2022-12-18T13:03:35;98078.06;;;-0.71;82.09
9281;BME280;4679;47.966;7.958;2022-12-18T13:05:43;98082.09;;;-0.77;82.02
9281;BME280;4679;47.966;7.958;2022-12-18T13:07:52;98070.75;;;-0.85;82.48
9281;BME280;4679;47.966;7.958;2022-12-18T13:10:14;98071.03;;;-1.06;82.68
9281;BME280;4679;47.966;7.958;2022-12-18T13:12:24;98064.41;;;-1.18;82.79
9281;BME280;4679;47.966;7.958;2022-12-18T13:14:43;98064.94;;;-1.15;83.08
9281;BME280;4679;47.966;7.958;2022-12-18T13:16:45;98063.44;;;-1.17;82.99
9281;BME280;4679;47.966;7.958;2022-12-18T13:18:50;98063.72;;;-1.20;83.16
9281;BME280;4679;47.966;7.958;2022-12-18T13:21:03;98057.13;;;-1.15;82.93
9281;BME280;4679;47.966;7.958;2022-12-18T13:23:32;98054.91;;;-1.10;83.01
9281;BME280;4679;47.966;7.958;2022-12-18T13:25:35;98053.56;;;-1.14;82.73
9281;BME280;4679;47.966;7.958;2022-12-18T13:28:06;98044.91;;;-1.14;82.65
9281;BME280;4679;47.966;7.958;2022-12-18T13:32:41;98050.34;;;-0.90;82.67
9281;BME280;4679;47.966;7.958;2022-12-18T13:34:43;98038.91;;;-0.79;82.69
9281;BME280;4679;47.966;7.958;2022-12-18T13:36:45;98035.69;;;-0.73;82.45
9281;BME280;4679;47.966;7.958;2022-12-18T13:39:10;98030.31;;;-0.54;82.50
9281;BME280;4679;47.966;7.958;2022-12-18T13:41:24;98032.56;;;-0.59;82.62
9281;BME280;4679;47.966;7.958;2022-12-18T13:43:29;98025.66;;;-0.68;82.70
9281;BME280;4679;47.966;7.958;2022-12-18T13:45:38;98025.88;;;-0.61;82.33
9281;BME280;4679;47.966;7.958;2022-12-18T13:47:43;98026.91;;;-0.54;82.68
9281;BME280;4679;47.966;7.958;2022-12-18T13:49:46;98036.59;;;-0.64;83.02
9281;BME280;4679;47.966;7.958;2022-12-18T13:51:49;98027.22;;;-0.75;82.87
9281;BME280;4679;47.966;7.958;2022-12-18T13:53:54;98038.09;;;-0.80;82.91
9281;BME280;4679;47.966;7.958;2022-12-18T13:55:58;98037.44;;;-0.82;83.23
9281;BME280;4679;47.966;7.958;2022-12-18T13:58:04;98030.97;;;-0.78;83.55
9281;BME280;4679;47.966;7.958;2022-12-18T14:00:24;98038.72;;;-0.60;83.12
9281;BME280;4679;47.966;7.958;2022-12-18T14:02:28;98041.88;;;-0.56;82.82
9281;BME280;4679;47.966;7.958;2022-12-18T14:04:32;98039.13;;;-0.55;83.31
9281;BME280;4679;47.966;7.958;2022-12-18T14:06:34;98037.41;;;-0.64;82.95
9281;BME280;4679;47.966;7.958;2022-12-18T14:08:38;98027.34;;;-0.59;83.47
9281;BME280;4679;47.966;7.958;2022-12-18T14:10:43;98021.31;;;-0.59;83.22
9281;BME280;4679;47.966;7.958;2022-12-18T14:12:46;98026.09;;;-0.55;83.19
9281;BME280;4679;47.966;7.958;2022-12-18T14:14:58;98028.13;;;-0.66;83.24
9281;BME280;4679;47.966;7.958;2022-12-18T14:17:00;98027.22;;;-0.75;83.45
9281;BME280;4679;47.966;7.958;2022-12-18T14:19:02;98035.13;;;-0.85;83.70
9281;BME280;4679;47.966;7.958;2022-12-18T14:21:04;98041.00;;;-0.83;83.63
9281;BME280;4679;47.966;7.958;2022-12-18T14:23:25;98035.69;;;-0.91;83.50
9281;BME280;4679;47.966;7.958;2022-12-18T14:25:28;98034.09;;;-0.92;83.61
9281;BME280;4679;47.966;7.958;2022-12-18T14:27:37;98029.59;;;-0.99;83.40
9281;BME280;4679;47.966;7.958;2022-12-18T14:29:42;98028.88;;;-0.92;83.79
9281;BME280;4679;47.966;7.958;2022-12-18T14:31:44;98034.88;;;-0.74;83.59
9281;BME280;4679;47.966;7.958;2022-12-18T14:33:46;98036.69;;;-0.92;83.54
9281;BME280;4679;47.966;7.958;2022-12-18T14:35:56;98046.47;;;-1.21;83.90
9281;BME280;4679;47.966;7.958;2022-12-18T14:38:11;98022.56;;;-1.34;83.75
9281;BME280;4679;47.966;7.958;2022-12-18T14:40:19;98031.97;;;-1.51;84.40
9281;BME280;4679;47.966;7.958;2022-12-18T14:42:20;98036.00;;;-1.57;84.88
9281;BME280;4679;47.966;7.958;2022-12-18T14:44:23;98033.94;;;-1.63;84.61
9281;BME280;4679;47.966;7.958;2022-12-18T14:46:28;98030.88;;;-1.76;84.44
9281;BME280;4679;47.966;7.958;2022-12-18T14:48:37;98043.47;;;-1.81;84.92
9281;BME280;4679;47.966;7.958;2022-12-18T14:50:39;98040.50;;;-1.86;85.02
9281;BME280;4679;47.966;7.958;2022-12-18T14:52:41;98037.78;;;-1.94;85.03
9281;BME280;4679;47.966;7.958;2022-12-18T14:54:45;98040.28;;;-2.02;84.81
9281;BME280;4679;47.966;7.958;2022-12-18T14:56:49;98041.09;;;-2.02;85.46
9281;BME280;4679;47.966;7.958;2022-12-18T14:58:54;98046.16;;;-2.10;85.29
9281;BME280;4679;47.966;7.958;2022-12-18T15:00:58;98046.75;;;-2.16;84.96
9281;BME280;4679;47.966;7.958;2022-12-18T15:02:59;98047.03;;;-2.19;85.03
9281;BME280;4679;47.966;7.958;2022-12-18T15:05:03;98051.00;;;-2.25;85.15
9281;BME280;4679;47.966;7.958;2022-12-18T15:07:13;98060.03;;;-2.29;85.32
9281;BME280;4679;47.966;7.958;2022-12-18T15:09:22;98052.22;;;-2.19;86.02
9281;BME280;4679;47.966;7.958;2022-12-18T15:11:32;98058.91;;;-2.07;85.56
9281;BME280;4679;47.966;7.958;2022-12-18T15:13:35;98071.91;;;-2.07;85.27
9281;BME280;4679;47.966;7.958;2022-12-18T15:15:47;98066.72;;;-2.17;85.09
9281;BME280;4679;47.966;7.958;2022-12-18T15:17:56;98067.31;;;-2.32;85.26
9281;BME280;4679;47.966;7.958;2022-12-18T15:20:00;98071.03;;;-2.44;86.01
9281;BME280;4679;47.966;7.958;2022-12-18T15:22:02;98072.66;;;-2.53;86.15
9281;BME280;4679;47.966;7.958;2022-12-18T15:24:13;98079.06;;;-2.57;85.37
9281;BME280;4679;47.966;7.958;2022-12-18T15:26:18;98084.56;;;-2.60;85.98
9281;BME280;4679;47.966;7.958;2022-12-18T15:28:23;98085.38;;;-2.60;86.14
9281;BME280;4679;47.966;7.958;2022-12-18T15:30:26;98090.16;;;-2.55;85.41
9281;BME280;4679;47.966;7.958;2022-12-18T15:32:27;98088.22;;;-2.43;85.83
9281;BME280;4679;47.966;7.958;2022-12-18T15:34:31;98090.97;;;-2.45;86.12
9281;BME280;4679;47.966;7.958;2022-12-18T15:36:34;98099.19;;;-2.50;86.22
9281;BME280;4679;47.966;7.958;2022-12-18T15:38:36;98100.41;;;-2.54;85.56
9281;BME280;4679;47.966;7.958;2022-12-18T15:40:38;98100.94;;;-2.50;86.08
9281;BME280;4679;47.966;7.958;2022-12-18T15:42:40;98096.97;;;-2.54;86.48
9281;BME280;4679;47.966;7.958;2022-12-18T15:44:59;98095.09;;;-2.62;85.40
9281;BME280;4679;47.966;7.958;2022-12-18T15:47:00;98101.22;;;-2.63;86.04
9281;BME280;4679;47.966;7.958;2022-12-18T15:49:02;98103.84;;;-2.63;86.06
9281;BME280;4679;47.966;7.958;2022-12-18T15:51:10;98099.97;;;-2.59;85.90
9281;BME280;4679;47.966;7.958;2022-12-18T15:53:13;98100.53;;;-2.55;86.51
9281;BME280;4679;47.966;7.958;2022-12-18T15:55:16;98101.91;;;-2.51;86.31
9281;BME280;4679;47.966;7.958;2022-12-18T15:57:36;98097.13;;;-2.56;86.07
9281;BME280;4679;47.966;7.958;2022-12-18T15:59:37;98099.97;;;-2.59;86.73
9281;BME280;4679;47.966;7.958;2022-12-18T16:01:40;98104.78;;;-2.64;86.56
9281;BME280;4679;47.966;7.958;2022-12-18T16:03:43;98099.31;;;-2.70;86.20
9281;BME280;4679;47.966;7.958;2022-12-18T16:05:45;98101.34;;;-2.74;87.05
9281;BME280;4679;47.966;7.958;2022-12-18T16:07:48;98106.41;;;-2.72;86.41
9281;BME280;4679;47.966;7.958;2022-12-18T16:09:50;98111.47;;;-2.71;86.23
9281;BME280;4679;47.966;7.958;2022-12-18T16:11:51;98110.50;;;-2.70;86.54
9281;BME280;4679;47.966;7.958;2022-12-18T16:13:53;98102.72;;;-2.70;86.42
9281;BME280;4679;47.966;7.958;2022-12-18T16:15:55;98098.63;;;-2.72;86.31
9281;BME280;4679;47.966;7.958;2022-12-18T16:17:56;98096.31;;;-2.75;86.83
9281;BME280;4679;47.966;7.958;2022-12-18T16:19:58;98100.00;;;-2.68;86.39
9281;BME280;4679;47.966;7.958;2022-12-18T16:22:00;98095.22;;;-2.63;86.21
9281;BME280;4679;47.966;7.958;2022-12-18T16:24:03;98105.03;;;-2.57;86.19
9281;BME280;4679;47.966;7.958;2022-12-18T16:26:05;98087.00;;;-2.49;85.82
9281;BME280;4679;47.966;7.958;2022-12-18T16:28:06;98082.50;;;-2.47;86.65
9281;BME280;4679;47.966;7.958;2022-12-18T16:30:12;98087.69;;;-2.47;85.85
9281;BME280;4679;47.966;7.958;2022-12-18T16:32:16;98085.22;;;-2.49;86.90
9281;BME280;4679;47.966;7.958;2022-12-18T16:34:20;98084.53;;;-2.51;86.30
9281;BME280;4679;47.966;7.958;2022-12-18T16:36:22;98078.94;;;-2.46;86.26
9281;BME280;4679;47.966;7.958;2022-12-18T16:38:24;98073.75;;;-2.46;86.60
9281;BME280;4679;47.966;7.958;2022-12-18T16:40:27;98073.19;;;-2.40;86.01
9281;BME280;4679;47.966;7.958;2022-12-18T16:42:28;98076.72;;;-2.41;86.26
9281;BME280;4679;47.966;7.958;2022-12-18T16:44:30;98073.88;;;-2.38;86.20
9281;BME280;4679;47.966;7.958;2022-12-18T16:46:32;98072.91;;;-2.37;86.87
9281;BME280;4679;47.966;7.958;2022-12-18T16:48:34;98071.94;;;-2.36;86.63
9281;BME280;4679;47.966;7.958;2022-12-18T16:50:35;98067.44;;;-2.34;86.08
9281;BME280;4679;47.966;7.958;2022-12-18T16:52:37;98063.06;;;-2.33;86.51
9281;BME280;4679;47.966;7.958;2022-12-18T16:54:39;98070.31;;;-2.37;86.19
9281;BME280;4679;47.966;7.958;2022-12-18T16:56:43;98068.41;;;-2.35;86.65
9281;BME280;4679;47.966;7.958;2022-12-18T16:58:49;98071.00;;;-2.35;86.10
9281;BME280;4679;47.966;7.958;2022-12-18T17:00:51;98067.72;;;-2.37;86.36
9281;BME280;4679;47.966;7.958;2022-12-18T17:02:53;98065.53;;;-2.41;86.77
9281;BME280;4679;47.966;7.958;2022-12-18T17:04:56;98068.97;;;-2.51;86.34
9281;BME280;4679;47.966;7.958;2022-12-18T17:06:58;98074.72;;;-2.47;86.29
9281;BME280;4679;47.966;7.958;2022-12-18T17:09:00;98072.63;;;-2.43;87.14
9281;BME280;4679;47.966;7.958;2022-12-18T17:11:03;98063.06;;;-2.43;86.23
9281;BME280;4679;47.966;7.958;2022-12-18T17:13:08;98069.06;;;-2.42;85.84
9281;BME280;4679;47.966;7.958;2022-12-18T17:15:10;98066.06;;;-2.38;86.43
9281;BME280;4679;47.966;7.958;2022-12-18T17:17:12;98061.56;;;-2.36;86.23
9281;BME280;4679;47.966;7.958;2022-12-18T17:19:14;98057.31;;;-2.37;86.15
9281;BME280;4679;47.966;7.958;2022-12-18T17:21:16;98059.78;;;-2.35;86.96
9281;BME280;4679;47.966;7.958;2022-12-18T17:23:18;98058.69;;;-2.33;86.31
9281;BME280;4679;47.966;7.958;2022-12-18T17:25:20;98056.47;;;-2.28;86.37
9281;BME280;4679;47.966;7.958;2022-12-18T17:27:21;98058.78;;;-2.25;86.68
9281;BME280;4679;47.966;7.958;2022-12-18T17:29:24;98051.56;;;-2.31;86.70
9281;BME280;4679;47.966;7.958;2022-12-18T17:31:28;98055.13;;;-2.32;86.01
9281;BME280;4679;47.966;7.958;2022-12-18T17:33:30;98054.03;;;-2.39;86.58
9281;BME280;4679;47.966;7.958;2022-12-18T17:35:32;98046.38;;;-2.40;86.35
9281;BME280;4679;47.966;7.958;2022-12-18T17:37:33;98047.59;;;-2.35;86.74
9281;BME280;4679;47.966;7.958;2022-12-18T17:39:35;98041.19;;;-2.31;86.57
9281;BME280;4679;47.966;7.958;2022-12-18T17:41:37;98039.09;;;-2.27;86.12
9281;BME280;4679;47.966;7.958;2022-12-18T17:43:39;98043.19;;;-2.25;86.41
9281;BME280;4679;47.966;7.958;2022-12-18T17:45:46;98035.41;;;-2.25;86.28
9281;BME280;4679;47.966;7.958;2022-12-18T17:47:48;98033.50;;;-2.23;86.19
9281;BME280;4679;47.966;7.958;2022-12-18T17:49:49;98032.53;;;-2.22;86.82
9281;BME280;4679;47.966;7.958;2022-12-18T17:51:51;98032.66;;;-2.23;86.68
9281;BME280;4679;47.966;7.958;2022-12-18T17:53:53;98031.31;;;-2.27;87.03
9281;BME280;4679;47.966;7.958;2022-12-18T17:55:55;98035.53;;;-2.26;86.95
9281;BME280;4679;47.966;7.958;2022-12-18T17:57:57;98024.31;;;-2.27;87.11
9281;BME280;4679;47.966;7.958;2022-12-18T17:59:59;98028.44;;;-2.24;86.45
9281;BME280;4679;47.966;7.958;2022-12-18T18:02:02;98020.50;;;-2.23;86.43
9281;BME280;4679;47.966;7.958;2022-12-18T18:04:04;98016.78;;;-2.20;86.48
9281;BME280;4679;47.966;7.958;2022-12-18T18:06:07;98021.03;;;-2.19;86.84
9281;BME280;4679;47.966;7.958;2022-12-18T18:08:09;98011.47;;;-2.19;86.46
9281;BME280;4679;47.966;7.958;2022-12-18T18:10:10;98023.38;;;-2.16;86.65
9281;BME280;4679;47.966;7.958;2022-12-18T18:12:12;98019.81;;;-2.15;86.70
9281;BME280;4679;47.966;7.958;2022-12-18T18:14:31;98021.28;;;-2.13;87.03
9281;BME280;4679;47.966;7.958;2022-12-18T18:16:35;98027.44;;;-2.14;86.46
9281;BME280;4679;47.966;7.958;2022-12-18T18:18:39;98032.63;;;-2.14;87.37
9281;BME280;4679;47.966;7.958;2022-12-18T18:20:40;98025.66;;;-2.13;86.50
9281;BME280;4679;47.966;7.958;2022-12-18T18:22:42;98025.81;;;-2.15;86.60
9281;BME280;4679;47.966;7.958;2022-12-18T18:24:44;98022.41;;;-2.15;87.19
9281;BME280;4679;47.966;7.958;2022-12-18T18:26:46;98031.16;;;-2.16;86.67
9281;BME280;4679;47.966;7.958;2022-12-18T18:28:48;98029.66;;;-2.19;87.07
9281;BME280;4679;47.966;7.958;2022-12-18T18:30:49;98024.72;;;-2.22;86.72
9281;BME280;4679;47.966;7.958;2022-12-18T18:32:51;98025.41;;;-2.20;87.21
9281;BME280;4679;47.966;7.958;2022-12-18T18:34:54;98027.06;;;-2.19;86.96
9281;BME280;4679;47.966;7.958;2022-12-18T18:36:56;98027.75;;;-2.17;86.89
9281;BME280;4679;47.966;7.958;2022-12-18T18:38:58;98026.78;;;-2.16;86.85
9281;BME280;4679;47.966;7.958;2022-12-18T18:41:02;98031.56;;;-2.21;87.16
9281;BME280;4679;47.966;7.958;2022-12-18T18:43:04;98048.25;;;-2.23;86.84
9281;BME280;4679;47.966;7.958;2022-12-18T18:45:06;98049.09;;;-2.23;87.10
9281;BME280;4679;47.966;7.958;2022-12-18T18:47:08;98054.81;;;-2.29;87.29
9281;BME280;4679;47.966;7.958;2022-12-18T18:49:10;98050.06;;;-2.43;86.66
9281;BME280;4679;47.966;7.958;2022-12-18T18:51:15;98056.94;;;-2.52;87.40
9281;BME280;4679;47.966;7.958;2022-12-18T18:53:18;98046.81;;;-2.55;87.20
9281;BME280;4679;47.966;7.958;2022-12-18T18:55:20;98049.13;;;-2.52;87.33
9281;BME280;4679;47.966;7.958;2022-12-18T18:57:21;98057.34;;;-2.46;86.86
9281;BME280;4679;47.966;7.958;2022-12-18T18:59:23;98049.09;;;-2.42;86.84
9281;BME280;4679;47.966;7.958;2022-12-18T19:01:25;98050.63;;;-2.39;87.34
9281;BME280;4679;47.966;7.958;2022-12-18T19:03:28;98051.72;;;-2.42;86.87
9281;BME280;4679;47.966;7.958;2022-12-18T19:05:30;98055.00;;;-2.40;86.95
9281;BME280;4679;47.966;7.958;2022-12-18T19:07:33;98053.91;;;-2.37;87.00
9281;BME280;4679;47.966;7.958;2022-12-18T19:09:35;98046.09;;;-2.37;87.36
9281;BME280;4679;47.966;7.958;2022-12-18T19:11:37;98045.97;;;-2.36;87.04
9281;BME280;4679;47.966;7.958;2022-12-18T19:13:58;98030.25;;;-2.34;87.11
9281;BME280;4679;47.966;7.958;2022-12-18T19:16:02;98039.69;;;-2.33;87.38
9281;BME280;4679;47.966;7.958;2022-12-18T19:18:04;98035.16;;;-2.31;87.00
9281;BME280;4679;47.966;7.958;2022-12-18T19:20:07;98031.88;;;-2.33;86.97